首页
METAR-TAF:

METAR-TAF

机场 :

奧斯塔夫耶沃國際機場

莫斯科, 俄罗斯

纬度: 55-30-42N, 经度: 037-30-26E, 海拔: 173米

当前天气观测

该预报发布于52分钟前的22:00 UTC
风速4节,风向
温度 0°C
湿度 93%
气压 1024 hPa
能见度10公里或以上
散云层高于800英尺
多云层高于2500英尺

METAR: UUMO 112200Z 09002MPS 9999 SCT008 BKN025 M00/M01 Q1024 R26/190055 NOSIG RMK QFE752/1003

时间: 01:52 (22:52 UTC)

预报

该预报发布于3小时和4分钟前的19:48 UTC
预报有效从11日的 21点(UTC)到 12日的 06点(UTC)
风速4节,风向
能見度: 6000
多云层高于800英尺
短暂存在
从 11日的 21点(UTC)到 12日的 06点(UTC)
能見度: 3000
多云层高于500英尺
轻雾

TAF: UUMO 111948Z 1121/1206 08002MPS 6000 BKN008 TEMPO 1121/1206 3000 BR BKN005

超过4000个机场的气象观测和天气预报(METAR&TAF报告)。

可查询的气象台以黄色和红色小点在地图上表示。

将鼠标移到小点上方,可查看气象台名称。

然后点击查看天气观测和预报。

如需切换地图:点击带黑十字的绿色按钮放大地图;点击带横线的绿色按钮缩小地图;或者点击绿色箭头查看邻近地区的地图。


METAR-TAF: